createdAt,value
2019-01-20T00:02:13.042Z,18.17
2019-01-20T00:04:42.258Z,18.82
2019-01-20T00:07:11.730Z,17.50
2019-01-20T00:09:46.748Z,17.70
2019-01-20T00:12:16.133Z,18.67
2019-01-20T00:14:46.530Z,18.65
2019-01-20T00:17:19.721Z,18.60
2019-01-20T00:19:50.130Z,18.80
2019-01-20T00:22:19.556Z,19.65
2019-01-20T00:24:49.032Z,18.35
2019-01-20T00:27:18.494Z,19.35
2019-01-20T00:29:50.130Z,17.32
2019-01-20T00:32:19.600Z,20.55
2019-01-20T00:34:49.021Z,18.07
2019-01-20T00:37:21.499Z,18.27
2019-01-20T00:39:50.999Z,17.45
2019-01-20T00:42:23.524Z,19.67
2019-01-20T00:44:53.067Z,19.27
2019-01-20T00:47:22.666Z,18.10
2019-01-20T00:49:52.126Z,19.00
2019-01-20T00:52:21.626Z,19.80
2019-01-20T00:54:51.072Z,19.90
2019-01-20T00:57:20.620Z,20.30
2019-01-20T00:59:52.475Z,18.73
2019-01-20T01:02:27.877Z,18.17
2019-01-20T01:04:57.355Z,19.07
2019-01-20T01:07:27.040Z,19.05
2019-01-20T01:09:56.473Z,19.90
2019-01-20T01:12:29.372Z,19.25
2019-01-20T01:14:58.851Z,19.17
2019-01-20T01:17:30.244Z,18.60
2019-01-20T01:19:59.886Z,19.75
2019-01-20T01:22:31.601Z,21.17
2019-01-20T01:25:01.583Z,19.23
2019-01-20T01:27:32.886Z,20.17
2019-01-20T01:30:04.189Z,18.30
2019-01-20T01:32:36.838Z,19.07
2019-01-20T01:35:06.782Z,20.75
2019-01-20T01:37:36.219Z,19.98
2019-01-20T01:40:07.536Z,19.73
2019-01-20T01:42:36.999Z,18.00
2019-01-20T01:45:08.624Z,18.55
2019-01-20T01:47:40.302Z,18.07
2019-01-20T01:50:10.412Z,18.62
2019-01-20T01:52:39.772Z,20.23
2019-01-20T01:55:12.511Z,19.48
2019-01-20T01:57:47.558Z,19.27
2019-01-20T02:00:19.781Z,19.17
2019-01-20T02:02:55.407Z,19.82
2019-01-20T02:05:24.877Z,19.35
2019-01-20T02:07:54.302Z,19.73
2019-01-20T02:10:23.811Z,20.35
2019-01-20T02:12:53.595Z,19.35
2019-01-20T02:15:23.778Z,19.80
2019-01-20T02:17:53.227Z,20.08
2019-01-20T02:20:26.241Z,21.27
2019-01-20T02:22:55.618Z,18.73
2019-01-20T02:25:25.045Z,18.92
2019-01-20T02:27:55.952Z,20.27
2019-01-20T02:30:29.801Z,20.23
2019-01-20T02:33:03.236Z,19.40
2019-01-20T02:35:36.797Z,20.72
2019-01-20T02:38:06.288Z,19.73
2019-01-20T02:40:35.641Z,19.57
2019-01-20T02:43:05.026Z,20.52
2019-01-20T02:45:46.478Z,20.57
2019-01-20T02:48:16.078Z,19.62
2019-01-20T02:50:45.428Z,19.92
2019-01-20T02:53:15.139Z,21.30
2019-01-20T02:55:44.509Z,22.73
2019-01-20T02:58:13.922Z,20.55
2019-01-20T03:00:43.339Z,21.20
2019-01-20T03:03:12.994Z,22.05
2019-01-20T03:05:42.335Z,22.20
2019-01-20T03:08:14.029Z,23.15
2019-01-20T03:10:46.426Z,23.60
2019-01-20T03:13:15.983Z,23.83
2019-01-20T03:15:49.225Z,24.55
2019-01-20T03:18:20.604Z,23.87
2019-01-20T03:20:57.046Z,23.77
2019-01-20T03:23:26.700Z,22.27
2019-01-20T03:25:56.102Z,24.57
2019-01-20T03:28:25.506Z,21.75
2019-01-20T03:30:56.434Z,24.02
2019-01-20T03:33:28.013Z,23.90
2019-01-20T03:36:01.158Z,24.57
2019-01-20T03:38:32.631Z,23.07
2019-01-20T03:41:06.991Z,23.42
2019-01-20T03:43:40.617Z,24.07
2019-01-20T03:46:10.079Z,24.55
2019-01-20T03:48:39.481Z,22.45
2019-01-20T03:51:08.849Z,24.57
2019-01-20T03:53:38.353Z,24.77
2019-01-20T03:56:07.715Z,25.05
2019-01-20T03:58:37.151Z,26.90
2019-01-20T04:01:06.573Z,25.08
2019-01-20T04:03:35.975Z,24.60
2019-01-20T04:06:07.882Z,26.85
2019-01-20T04:08:39.909Z,26.15
2019-01-20T04:11:09.318Z,26.30
2019-01-20T04:13:38.905Z,27.00
2019-01-20T04:16:08.300Z,28.15
2019-01-20T04:18:37.762Z,26.90
2019-01-20T04:21:07.110Z,26.30
2019-01-20T04:23:36.480Z,28.42
2019-01-20T04:26:05.928Z,26.68
2019-01-20T04:28:35.402Z,29.80
2019-01-20T04:31:04.778Z,27.80
2019-01-20T04:33:35.292Z,26.73
2019-01-20T04:36:04.875Z,25.45
2019-01-20T04:38:34.301Z,25.92
2019-01-20T04:41:03.703Z,25.32
2019-01-20T04:43:33.118Z,26.17
2019-01-20T04:46:02.851Z,26.42
2019-01-20T04:48:32.270Z,28.10
2019-01-20T04:51:01.641Z,26.95
2019-01-20T04:53:31.025Z,27.82
2019-01-20T04:56:00.567Z,26.07
2019-01-20T04:58:30.006Z,27.32
2019-01-20T05:00:59.453Z,28.70
2019-01-20T05:03:28.918Z,27.15
2019-01-20T05:05:58.445Z,27.67
2019-01-20T05:08:27.881Z,26.07
2019-01-20T05:10:59.235Z,26.17
2019-01-20T05:13:28.734Z,26.60
2019-01-20T05:15:58.330Z,26.30
2019-01-20T05:18:27.752Z,27.93
2019-01-20T05:20:57.237Z,27.22
2019-01-20T05:23:26.740Z,25.75
2019-01-20T05:25:57.262Z,27.58
2019-01-20T05:28:26.679Z,26.87
2019-01-20T05:30:56.139Z,25.25
2019-01-20T05:33:25.659Z,27.65
2019-01-20T05:35:55.109Z,28.17
2019-01-20T05:38:24.606Z,28.52
2019-01-20T05:40:54.039Z,27.32
2019-01-20T05:43:23.436Z,27.82
2019-01-20T05:45:52.901Z,27.37
2019-01-20T05:48:25.337Z,27.17
2019-01-20T05:50:54.750Z,28.65
2019-01-20T05:53:24.261Z,27.60
2019-01-20T05:55:53.725Z,27.45
2019-01-20T05:58:23.097Z,27.52
2019-01-20T06:00:52.528Z,27.25
2019-01-20T06:03:24.312Z,27.52
2019-01-20T06:05:53.757Z,27.90
2019-01-20T06:08:23.242Z,27.65
2019-01-20T06:10:52.815Z,28.52
2019-01-20T06:13:22.245Z,27.05
2019-01-20T06:15:51.619Z,27.00
2019-01-20T06:18:21.029Z,28.25
2019-01-20T06:20:50.518Z,28.75
2019-01-20T06:23:20.066Z,28.65
2019-01-20T06:25:49.441Z,30.00
2019-01-20T06:28:18.875Z,27.32
2019-01-20T06:30:53.673Z,28.07
2019-01-20T06:33:25.081Z,32.78
2019-01-20T06:35:54.483Z,29.02
2019-01-20T06:38:23.972Z,29.85
2019-01-20T06:40:53.404Z,28.00
2019-01-20T06:43:22.778Z,28.95
2019-01-20T06:45:52.196Z,30.00
2019-01-20T06:48:21.643Z,28.10
2019-01-20T06:50:51.103Z,29.02
2019-01-20T06:53:20.531Z,27.37
2019-01-20T06:55:51.820Z,35.28
2019-01-20T06:58:21.236Z,29.30
2019-01-20T07:00:50.689Z,28.98
2019-01-20T07:03:20.235Z,28.92
2019-01-20T07:05:49.642Z,28.23
2019-01-20T07:08:19.029Z,30.95
2019-01-20T07:10:48.512Z,29.63
2019-01-20T07:13:17.938Z,28.05
2019-01-20T07:15:47.427Z,26.93
2019-01-20T07:18:16.836Z,27.73
2019-01-20T07:20:46.342Z,29.07
2019-01-20T07:23:15.969Z,27.22
2019-01-20T07:25:45.314Z,27.58
2019-01-20T07:28:14.672Z,27.27
2019-01-20T07:30:44.102Z,25.60
2019-01-20T07:33:13.462Z,27.70
2019-01-20T07:35:43.133Z,27.73
2019-01-20T07:38:13.946Z,26.35
2019-01-20T07:40:43.450Z,27.65
2019-01-20T07:43:17.026Z,29.18
2019-01-20T07:45:43.954Z,27.77
2019-01-20T07:48:13.314Z,28.87
2019-01-20T07:50:44.092Z,30.95
2019-01-20T07:53:13.461Z,29.63
2019-01-20T07:55:43.066Z,27.58
2019-01-20T07:58:12.535Z,32.45
2019-01-20T08:00:42.110Z,28.87
2019-01-20T08:03:11.500Z,27.22
2019-01-20T08:05:40.937Z,28.67
2019-01-20T08:08:10.370Z,29.57
2019-01-20T08:10:39.989Z,30.55
2019-01-20T08:13:09.492Z,28.87
2019-01-20T08:15:38.846Z,30.27
2019-01-20T08:18:08.443Z,28.83
2019-01-20T08:20:37.873Z,27.48
2019-01-20T08:23:07.220Z,28.90
2019-01-20T08:25:36.600Z,29.80
2019-01-20T08:28:06.019Z,25.60
2019-01-20T08:30:35.714Z,27.50
2019-01-20T08:33:06.730Z,27.07
2019-01-20T08:35:36.161Z,27.95
2019-01-20T08:38:05.711Z,26.57
2019-01-20T08:40:35.582Z,24.50
2019-01-20T08:43:05.044Z,26.97
2019-01-20T08:45:57.377Z,24.92
2019-01-20T08:48:26.862Z,28.95
2019-01-20T08:50:57.912Z,27.80
2019-01-20T08:53:28.424Z,28.42
2019-01-20T08:55:58.144Z,26.42
2019-01-20T08:58:27.600Z,27.15
2019-01-20T09:00:57.086Z,25.10
2019-01-20T09:03:26.809Z,26.60
2019-01-20T09:05:56.405Z,26.33
2019-01-20T09:08:25.895Z,26.90
2019-01-20T09:10:55.400Z,26.55
2019-01-20T09:13:24.981Z,26.60
2019-01-20T09:15:54.450Z,27.98
2019-01-20T09:18:28.915Z,27.27
2019-01-20T09:20:58.414Z,28.70
2019-01-20T09:23:27.879Z,28.02
2019-01-20T09:25:57.270Z,26.82
2019-01-20T09:28:26.795Z,29.07
2019-01-20T09:30:56.314Z,26.70
2019-01-20T09:33:25.776Z,28.77
2019-01-20T09:35:58.406Z,29.00
2019-01-20T09:38:27.928Z,30.40
2019-01-20T09:40:57.323Z,28.05
2019-01-20T09:43:28.054Z,29.12
2019-01-20T09:45:59.300Z,28.30
2019-01-20T09:48:31.614Z,31.68
2019-01-20T09:51:01.426Z,28.83
2019-01-20T09:53:30.936Z,26.42
2019-01-20T09:56:00.389Z,29.20
2019-01-20T09:58:30.052Z,30.57
2019-01-20T10:00:59.565Z,27.00
2019-01-20T10:03:29.103Z,29.52
2019-01-20T10:05:59.832Z,28.87
2019-01-20T10:08:29.307Z,29.27
2019-01-20T10:10:59.030Z,29.45
2019-01-20T10:13:28.541Z,27.60
2019-01-20T10:15:58.045Z,29.32
2019-01-20T10:18:27.573Z,27.27
2019-01-20T10:20:57.134Z,28.60
2019-01-20T10:23:26.701Z,29.27
2019-01-20T10:25:56.252Z,28.38
2019-01-20T10:28:27.143Z,28.07
2019-01-20T10:30:56.769Z,28.32
2019-01-20T10:33:26.343Z,30.88
2019-01-20T10:36:02.693Z,27.32
2019-01-20T10:38:36.952Z,29.05
2019-01-20T10:41:03.676Z,27.17
2019-01-20T10:43:33.247Z,28.38
2019-01-20T10:46:02.823Z,28.05
2019-01-20T10:48:32.634Z,27.30
2019-01-20T10:51:02.354Z,28.07
2019-01-20T10:53:31.986Z,28.57
2019-01-20T10:56:02.009Z,28.55
2019-01-20T10:58:31.441Z,28.02
2019-01-20T11:01:01.054Z,27.67
2019-01-20T11:03:30.457Z,27.82
2019-01-20T11:05:59.918Z,27.32
2019-01-20T11:08:29.361Z,28.10
2019-01-20T11:10:58.917Z,27.02
2019-01-20T11:13:28.425Z,28.27
2019-01-20T11:15:57.959Z,27.73
2019-01-20T11:18:27.917Z,26.50
2019-01-20T11:20:57.369Z,28.32
2019-01-20T11:23:27.061Z,28.00
2019-01-20T11:25:56.640Z,28.05
2019-01-20T11:28:26.051Z,26.20
2019-01-20T11:30:55.695Z,25.82
2019-01-20T11:33:25.086Z,24.77
2019-01-20T11:35:54.518Z,26.15
2019-01-20T11:38:24.006Z,24.80
2019-01-20T11:40:53.668Z,25.60
2019-01-20T11:43:23.039Z,25.35
2019-01-20T11:45:52.491Z,25.65
2019-01-20T11:48:22.008Z,24.87
2019-01-20T11:50:51.528Z,25.82
2019-01-20T11:53:20.939Z,24.63
2019-01-20T11:55:50.366Z,27.10
2019-01-20T11:58:19.760Z,26.60
2019-01-20T12:00:49.461Z,27.30
2019-01-20T12:03:18.907Z,26.97
2019-01-20T12:05:48.724Z,26.33
2019-01-20T12:08:18.250Z,24.47
2019-01-20T12:10:47.801Z,26.15
2019-01-20T12:13:22.100Z,26.45
2019-01-20T12:15:51.706Z,25.90
2019-01-20T12:18:21.178Z,27.75
2019-01-20T12:20:50.683Z,26.60
2019-01-20T12:23:20.234Z,26.52
2019-01-20T12:25:49.665Z,26.55
2019-01-20T12:28:20.871Z,26.75
2019-01-20T12:30:50.264Z,27.27
2019-01-20T12:33:19.714Z,27.75
2019-01-20T12:35:49.152Z,26.80
2019-01-20T12:38:18.593Z,26.52
2019-01-20T12:40:48.612Z,26.27
2019-01-20T12:43:18.114Z,26.20
2019-01-20T12:45:47.489Z,26.05
2019-01-20T12:48:17.116Z,26.55
2019-01-20T12:50:46.535Z,26.77
2019-01-20T12:53:16.000Z,27.58
2019-01-20T12:55:45.404Z,25.80
2019-01-20T12:58:15.138Z,25.82
2019-01-20T13:00:44.681Z,25.90
2019-01-20T13:03:14.537Z,27.13
2019-01-20T13:05:43.971Z,27.20
2019-01-20T13:08:22.502Z,26.23
2019-01-20T13:10:52.040Z,25.35
2019-01-20T13:13:21.408Z,24.67
2019-01-20T13:15:50.850Z,25.85
2019-01-20T13:18:20.464Z,25.95
2019-01-20T13:20:52.708Z,25.17
2019-01-20T13:23:22.098Z,27.25
2019-01-20T13:25:51.524Z,25.77
2019-01-20T13:28:20.876Z,26.25
2019-01-20T13:30:50.516Z,28.40
2019-01-20T13:33:19.938Z,25.52
2019-01-20T13:35:49.430Z,27.30
2019-01-20T13:38:21.010Z,25.35
2019-01-20T13:40:54.381Z,26.73
2019-01-20T13:43:23.857Z,25.50
2019-01-20T13:45:53.825Z,26.30
2019-01-20T13:48:23.331Z,25.88
2019-01-20T13:50:53.003Z,25.60
2019-01-20T13:53:22.464Z,24.55
2019-01-20T13:55:51.925Z,24.35
2019-01-20T13:58:21.308Z,24.40
2019-01-20T14:00:50.981Z,25.70
2019-01-20T14:03:20.476Z,24.10
2019-01-20T14:05:49.931Z,23.55
2019-01-20T14:08:19.725Z,25.30
2019-01-20T14:10:53.969Z,24.72
2019-01-20T14:13:23.412Z,25.57
2019-01-20T14:15:53.045Z,25.17
2019-01-20T14:18:22.519Z,24.23
2019-01-20T14:20:52.078Z,23.85
2019-01-20T14:23:21.827Z,24.30
2019-01-20T14:25:51.289Z,24.23
2019-01-20T14:28:21.074Z,25.82
2019-01-20T14:30:50.543Z,25.02
2019-01-20T14:33:20.205Z,25.97
2019-01-20T14:35:49.806Z,24.55
2019-01-20T14:38:19.326Z,24.47
2019-01-20T14:40:48.747Z,24.72
2019-01-20T14:43:18.227Z,24.63
2019-01-20T14:45:47.747Z,24.37
2019-01-20T14:48:17.162Z,24.87
2019-01-20T14:50:48.421Z,25.45
2019-01-20T14:53:19.120Z,25.30
2019-01-20T14:55:48.517Z,29.57
2019-01-20T14:58:17.953Z,26.82
2019-01-20T15:00:47.351Z,23.42
2019-01-20T15:03:17.248Z,31.48
2019-01-20T15:05:49.113Z,26.17
2019-01-20T15:08:18.645Z,24.30
2019-01-20T15:10:49.304Z,24.35
2019-01-20T15:13:21.137Z,23.98
2019-01-20T15:15:50.611Z,24.80
2019-01-20T15:18:20.345Z,26.23
2019-01-20T15:20:49.889Z,23.95
2019-01-20T15:23:19.357Z,25.20
2019-01-20T15:25:48.935Z,24.50
2019-01-20T15:28:19.553Z,25.02
2019-01-20T15:30:49.513Z,25.97
2019-01-20T15:33:19.057Z,24.87
2019-01-20T15:35:49.752Z,25.68
2019-01-20T15:38:19.229Z,25.23
2019-01-20T15:40:48.757Z,24.85
2019-01-20T15:43:18.525Z,25.52
2019-01-20T15:45:48.154Z,24.82
2019-01-20T15:48:17.720Z,25.75
2019-01-20T15:50:47.180Z,26.20
2019-01-20T15:53:16.682Z,26.45
2019-01-20T15:55:46.770Z,26.52
2019-01-20T15:58:16.260Z,26.95
2019-01-20T16:00:45.936Z,25.15
2019-01-20T16:03:15.536Z,27.58
2019-01-20T16:05:45.133Z,26.97
2019-01-20T16:08:14.648Z,26.48
2019-01-20T16:10:44.275Z,27.55
2019-01-20T16:13:13.905Z,25.12
2019-01-20T16:15:43.445Z,26.82
2019-01-20T16:18:14.544Z,25.15
2019-01-20T16:20:44.136Z,26.10
2019-01-20T16:23:13.657Z,25.35
2019-01-20T16:25:43.152Z,25.23
2019-01-20T16:28:12.980Z,24.20
2019-01-20T16:30:42.664Z,24.77
2019-01-20T16:33:12.259Z,24.07
2019-01-20T16:35:41.903Z,24.75
2019-01-20T16:38:12.214Z,25.65
2019-01-20T16:40:44.965Z,25.15
2019-01-20T16:43:14.491Z,27.15
2019-01-20T16:45:45.771Z,25.02
2019-01-20T16:48:15.521Z,25.20
2019-01-20T16:50:45.292Z,24.65
2019-01-20T16:53:15.228Z,27.22
2019-01-20T16:55:44.856Z,25.05
2019-01-20T16:58:14.514Z,25.32
2019-01-20T17:00:45.555Z,25.43
2019-01-20T17:03:15.823Z,25.70
2019-01-20T17:05:45.265Z,25.70
2019-01-20T17:08:15.840Z,25.60
2019-01-20T17:10:45.730Z,26.23
2019-01-20T17:13:15.201Z,24.65
2019-01-20T17:15:45.976Z,26.27
2019-01-20T17:18:16.430Z,25.37
2019-01-20T17:20:46.361Z,26.37
2019-01-20T17:23:16.504Z,26.65
2019-01-20T17:25:46.056Z,25.43
2019-01-20T17:28:15.857Z,25.57
2019-01-20T17:30:45.663Z,26.82
2019-01-20T17:33:15.585Z,26.97
2019-01-20T17:35:45.303Z,26.33
2019-01-20T17:38:15.370Z,27.02
2019-01-20T17:40:45.158Z,26.35
2019-01-20T17:43:14.998Z,28.52
2019-01-20T17:45:48.442Z,26.70
2019-01-20T17:48:17.509Z,27.27
2019-01-20T17:50:47.149Z,29.95
2019-01-20T17:53:16.865Z,28.60
2019-01-20T17:55:46.486Z,29.40
2019-01-20T17:58:18.399Z,32.88
2019-01-20T18:00:54.128Z,29.90
2019-01-20T18:03:23.679Z,32.20
2019-01-20T18:05:53.348Z,30.15
2019-01-20T18:08:23.301Z,30.43
2019-01-20T18:10:53.159Z,33.25
2019-01-20T18:13:23.585Z,29.37
2019-01-20T18:15:54.711Z,31.33
2019-01-20T18:18:24.399Z,29.87
2019-01-20T18:20:54.028Z,28.92
2019-01-20T18:23:23.691Z,30.72
2019-01-20T18:25:53.311Z,28.50
2019-01-20T18:28:22.808Z,27.73
2019-01-20T18:30:52.246Z,27.65
2019-01-20T18:33:21.714Z,26.57
2019-01-20T18:35:51.316Z,27.98
2019-01-20T18:38:20.783Z,27.93
2019-01-20T18:40:50.308Z,27.20
2019-01-20T18:43:20.050Z,25.68
2019-01-20T18:45:49.625Z,27.02
2019-01-20T18:48:19.249Z,26.82
2019-01-20T18:50:48.921Z,26.55
2019-01-20T18:53:18.482Z,26.80
2019-01-20T18:55:48.107Z,27.30
2019-01-20T18:58:17.652Z,31.00
2019-01-20T19:00:49.387Z,27.85
2019-01-20T19:03:18.922Z,28.12
2019-01-20T19:05:48.416Z,26.70
2019-01-20T19:08:17.926Z,26.62
2019-01-20T19:10:47.428Z,28.10
2019-01-20T19:13:17.278Z,27.17
2019-01-20T19:15:46.893Z,26.15
2019-01-20T19:18:19.111Z,26.65
2019-01-20T19:20:48.131Z,26.73
2019-01-20T19:23:17.761Z,26.82
2019-01-20T19:25:47.304Z,27.45
2019-01-20T19:28:16.763Z,27.10
2019-01-20T19:30:46.277Z,26.52
2019-01-20T19:33:22.231Z,29.00
2019-01-20T19:35:51.960Z,30.20
2019-01-20T19:38:21.384Z,31.70
2019-01-20T19:40:52.669Z,29.95
2019-01-20T19:43:22.177Z,30.45
2019-01-20T19:45:51.894Z,30.52
2019-01-20T19:48:21.513Z,28.38
2019-01-20T19:50:51.118Z,29.05
2019-01-20T19:53:20.610Z,27.58
2019-01-20T19:55:51.621Z,27.05
2019-01-20T19:58:21.103Z,26.07
2019-01-20T20:00:50.672Z,26.75
2019-01-20T20:03:20.436Z,27.20
2019-01-20T20:05:50.032Z,27.10
2019-01-20T20:08:19.980Z,26.80
2019-01-20T20:10:49.603Z,27.25
2019-01-20T20:13:19.162Z,26.70
2019-01-20T20:15:48.864Z,27.27
2019-01-20T20:18:18.717Z,29.57
2019-01-20T20:20:48.323Z,27.52
2019-01-20T20:23:18.088Z,28.73
2019-01-20T20:25:47.536Z,30.32
2019-01-20T20:28:20.199Z,29.15
2019-01-20T20:30:51.840Z,28.65
2019-01-20T20:33:21.354Z,29.07
2019-01-20T20:35:51.060Z,28.92
2019-01-20T20:38:20.550Z,30.00
2019-01-20T20:40:50.086Z,31.80
2019-01-20T20:43:22.564Z,29.45
2019-01-20T20:45:52.153Z,29.35
2019-01-20T20:48:22.695Z,27.52
2019-01-20T20:50:53.455Z,29.32
2019-01-20T20:53:23.126Z,28.35
2019-01-20T20:55:52.627Z,27.25
2019-01-20T20:58:22.281Z,27.85
2019-01-20T21:00:53.971Z,27.32
2019-01-20T21:03:26.399Z,27.13
2019-01-20T21:05:56.199Z,26.45
2019-01-20T21:08:25.719Z,27.37
2019-01-20T21:10:55.482Z,26.05
2019-01-20T21:13:25.987Z,26.25
2019-01-20T21:15:55.498Z,27.13
2019-01-20T21:18:25.054Z,28.67
2019-01-20T21:20:54.568Z,30.08
2019-01-20T21:23:24.193Z,27.13
2019-01-20T21:25:54.084Z,27.87
2019-01-20T21:28:23.722Z,28.20
2019-01-20T21:30:53.268Z,27.87
2019-01-20T21:33:22.768Z,28.70
2019-01-20T21:35:52.246Z,28.85
2019-01-20T21:38:22.105Z,27.32
2019-01-20T21:40:51.725Z,28.17
2019-01-20T21:43:21.232Z,28.32
2019-01-20T21:45:50.844Z,27.85
2019-01-20T21:48:20.386Z,26.62
2019-01-20T21:50:53.096Z,25.60
2019-01-20T21:53:22.962Z,27.10
2019-01-20T21:55:52.701Z,30.20
2019-01-20T21:58:22.734Z,27.67
2019-01-20T22:00:52.657Z,30.55
2019-01-20T22:03:22.305Z,28.52
2019-01-20T22:05:52.179Z,27.02
2019-01-20T22:08:21.855Z,26.97
2019-01-20T22:10:54.590Z,25.82
2019-01-20T22:13:25.512Z,27.37
2019-01-20T22:15:54.928Z,27.48
2019-01-20T22:18:24.460Z,27.62
2019-01-20T22:20:53.999Z,28.32
2019-01-20T22:23:24.022Z,27.37
2019-01-20T22:25:56.972Z,28.05
2019-01-20T22:28:26.622Z,28.17
2019-01-20T22:30:56.198Z,26.42
2019-01-20T22:33:25.744Z,27.67
2019-01-20T22:35:55.493Z,25.40
2019-01-20T22:38:26.628Z,27.52
2019-01-20T22:40:56.173Z,27.42
2019-01-20T22:43:25.631Z,27.05
2019-01-20T22:45:55.787Z,26.93
2019-01-20T22:48:25.570Z,27.32
2019-01-20T22:50:55.075Z,29.65
2019-01-20T22:53:24.700Z,30.57
2019-01-20T22:55:54.252Z,28.52
2019-01-20T22:58:23.698Z,29.55
2019-01-20T23:01:00.762Z,30.00
2019-01-20T23:03:30.967Z,27.58
2019-01-20T23:06:00.501Z,27.15
2019-01-20T23:08:31.026Z,26.55
2019-01-20T23:11:00.609Z,27.00
2019-01-20T23:13:30.461Z,27.77
2019-01-20T23:15:59.985Z,27.65
2019-01-20T23:18:30.688Z,26.55
2019-01-20T23:21:00.217Z,24.07
2019-01-20T23:23:29.794Z,25.65
2019-01-20T23:26:00.426Z,27.15
2019-01-20T23:28:29.951Z,27.13
2019-01-20T23:30:59.553Z,26.52
2019-01-20T23:33:29.081Z,25.32
2019-01-20T23:35:58.763Z,25.20
2019-01-20T23:38:28.693Z,25.88
2019-01-20T23:40:58.585Z,25.45
2019-01-20T23:43:28.200Z,26.37
2019-01-20T23:45:57.886Z,27.67
2019-01-20T23:48:27.576Z,25.52
2019-01-20T23:50:58.682Z,26.65
2019-01-20T23:53:28.432Z,25.62
2019-01-20T23:56:00.117Z,26.05
2019-01-20T23:58:29.600Z,27.05
